Time;durP1;ratioP1;P1;durP2;ratioP2;P2;SDS_P1;SDS_P2;PMS_P1;PMS_P2;Temp;Humidity;BMP_temperature;BMP_pressure;BME280_temperature;BME280_humidity;BME280_pressure;Samples;Min_cycle;Max_cycle;Signal;HPM_P1;HPM_P2
2023/07/06 00:01:24;;;;;;;3.58;1.83;;;;;;;;;;5000198;28;20042;-69
2023/07/06 00:03:54;;;;;;;5.45;1.80;;;;;;;;;;5007100;28;20045;-66
2023/07/06 00:06:23;;;;;;;6.85;2.28;;;;;;;;;;5002938;28;20484;-67
2023/07/06 00:08:52;;;;;;;3.83;1.60;;;;;;;;;;5004234;28;20046;-67
2023/07/06 00:11:21;;;;;;;2.33;1.25;;;;;;;;;;5005386;28;20502;-67
2023/07/06 00:13:49;;;;;;;4.55;1.38;;;;;;;;;;5004321;28;20065;-66
2023/07/06 00:16:20;;;;;;;2.83;1.50;;;;;;;;;;5002854;28;20124;-66
2023/07/06 00:18:50;;;;;;;5.50;1.80;;;;;;;;;;5002098;28;20459;-66
2023/07/06 00:21:19;;;;;;;3.47;1.70;;;;;;;;;;5009443;28;20125;-73
2023/07/06 00:23:47;;;;;;;3.17;1.55;;;;;;;;;;4999732;28;20465;-69
2023/07/06 00:26:16;;;;;;;4.32;1.40;;;;;;;;;;5002151;28;20049;-69
2023/07/06 00:28:48;;;;;;;2.95;1.30;;;;;;;;;;5003480;28;20050;-67
2023/07/06 00:31:31;;;;;;;3.78;1.52;;;;;;;;;;5000054;28;20050;-67
2023/07/06 00:34:04;;;;;;;4.20;1.50;;;;;;;;;;5003912;28;20054;-68
2023/07/06 00:36:35;;;;;;;3.22;1.50;;;;;;;;;;4998090;28;20045;-68
2023/07/06 00:39:04;;;;;;;3.25;1.80;;;;;;;;;;5001569;28;20146;-66
2023/07/06 00:41:33;;;;;;;2.15;1.25;;;;;;;;;;4998128;28;20121;-68
2023/07/06 00:44:02;;;;;;;4.95;1.40;;;;;;;;;;5003715;28;20049;-66
2023/07/06 00:46:36;;;;;;;2.10;1.33;;;;;;;;;;5003748;28;20045;-67
2023/07/06 00:49:12;;;;;;;5.17;1.93;;;;;;;;;;5008144;28;20072;-68
2023/07/06 00:51:41;;;;;;;3.63;1.60;;;;;;;;;;5004785;28;20565;-68
2023/07/06 00:54:12;;;;;;;4.05;1.58;;;;;;;;;;4999523;28;20038;-74
2023/07/06 00:56:42;;;;;;;4.07;1.83;;;;;;;;;;5001820;28;20046;-68
2023/07/06 00:59:12;;;;;;;6.50;1.55;;;;;;;;;;5004183;28;20049;-66
2023/07/06 01:04:17;;;;;;;7.25;2.28;;;;;;;;;;4986824;28;20092;-70
2023/07/06 01:06:48;;;;;;;3.15;1.67;;;;;;;;;;4978265;28;20046;-65
2023/07/06 01:09:17;;;;;;;4.00;1.73;;;;;;;;;;4978489;28;20451;-68
2023/07/06 01:11:46;;;;;;;4.43;1.80;;;;;;;;;;4977698;28;20054;-69
2023/07/06 01:14:14;;;;;;;5.05;1.67;;;;;;;;;;4979743;28;20058;-63
2023/07/06 01:16:44;;;;;;;3.80;1.58;;;;;;;;;;4978763;28;20062;-64
2023/07/06 01:19:24;;;;;;;3.60;1.70;;;;;;;;;;4987411;28;20458;-63
2023/07/06 01:21:58;;;;;;;5.05;1.90;;;;;;;;;;4982099;28;20488;-65
2023/07/06 01:24:44;;;;;;;4.35;1.55;;;;;;;;;;4979034;28;23284;-64
2023/07/06 01:27:24;;;;;;;3.13;1.60;;;;;;;;;;4984549;28;20046;-63
2023/07/06 01:30:19;;;;;;;2.88;1.52;;;;;;;;;;4978520;28;20519;-63
2023/07/06 01:32:53;;;;;;;3.05;1.60;;;;;;;;;;4981972;28;20137;-68
2023/07/06 01:35:37;;;;;;;2.95;1.60;;;;;;;;;;4983158;28;20050;-67
2023/07/06 01:38:05;;;;;;;3.78;1.67;;;;;;;;;;4981337;28;20074;-65
2023/07/06 01:40:34;;;;;;;3.35;1.48;;;;;;;;;;4980142;28;20050;-66
2023/07/06 01:43:02;;;;;;;3.90;1.50;;;;;;;;;;4982604;28;20060;-68
2023/07/06 01:45:31;;;;;;;3.50;1.85;;;;;;;;;;4977643;28;20589;-65
2023/07/06 01:48:03;;;;;;;4.18;1.90;;;;;;;;;;4980872;28;20060;-69
2023/07/06 01:50:33;;;;;;;2.58;1.52;;;;;;;;;;4982319;28;20042;-64
2023/07/06 01:53:06;;;;;;;4.72;2.10;;;;;;;;;;4978766;28;20078;-65
2023/07/06 01:55:37;;;;;;;3.13;2.10;;;;;;;;;;4979473;28;20057;-64
2023/07/06 01:58:09;;;;;;;3.50;1.88;;;;;;;;;;4982667;28;20092;-69
2023/07/06 02:00:39;;;;;;;3.33;1.80;;;;;;;;;;4979839;28;20058;-66
2023/07/06 02:03:10;;;;;;;5.03;2.13;;;;;;;;;;4982539;28;20054;-65
2023/07/06 02:05:39;;;;;;;5.00;1.60;;;;;;;;;;4976730;28;20723;-64
2023/07/06 02:08:08;;;;;;;3.55;1.80;;;;;;;;;;4981867;28;20125;-66
2023/07/06 02:10:36;;;;;;;3.17;1.38;;;;;;;;;;4980196;28;20562;-70
2023/07/06 02:13:04;;;;;;;3.70;1.77;;;;;;;;;;4980112;28;20066;-63
2023/07/06 02:15:33;;;;;;;3.05;1.73;;;;;;;;;;4982731;28;20046;-66
2023/07/06 02:18:02;;;;;;;4.20;1.67;;;;;;;;;;4982926;28;20041;-65
2023/07/06 02:20:32;;;;;;;5.57;1.83;;;;;;;;;;4985656;28;20164;-68
2023/07/06 02:23:00;;;;;;;3.20;1.67;;;;;;;;;;4981657;28;20058;-65
2023/07/06 02:25:29;;;;;;;2.20;1.65;;;;;;;;;;4988062;28;20138;-65
2023/07/06 02:27:57;;;;;;;3.78;1.92;;;;;;;;;;4979944;28;20287;-68
2023/07/06 02:30:25;;;;;;;4.32;1.98;;;;;;;;;;4990897;28;20487;-65
2023/07/06 02:32:54;;;;;;;3.95;1.98;;;;;;;;;;4988746;28;20581;-68
2023/07/06 02:35:22;;;;;;;3.30;1.50;;;;;;;;;;4984124;28;21290;-67
2023/07/06 02:37:52;;;;;;;2.88;1.52;;;;;;;;;;4986154;28;20085;-68
2023/07/06 02:40:22;;;;;;;3.50;1.70;;;;;;;;;;4983532;28;20049;-64
2023/07/06 02:42:51;;;;;;;4.28;1.60;;;;;;;;;;4984135;28;20243;-67
2023/07/06 02:45:19;;;;;;;4.05;1.77;;;;;;;;;;4987266;28;20047;-71
2023/07/06 02:47:48;;;;;;;5.22;2.05;;;;;;;;;;4988055;28;20070;-71
2023/07/06 02:50:16;;;;;;;3.55;1.63;;;;;;;;;;4986382;28;20061;-64
2023/07/06 02:52:44;;;;;;;4.13;1.70;;;;;;;;;;4989416;28;20045;-65
2023/07/06 02:55:16;;;;;;;3.33;1.58;;;;;;;;;;4987939;28;20049;-66
2023/07/06 02:57:44;;;;;;;5.47;1.67;;;;;;;;;;4983785;28;20046;-63
2023/07/06 03:00:16;;;;;;;2.78;1.52;;;;;;;;;;4983415;28;20046;-64
2023/07/06 03:02:45;;;;;;;3.65;1.60;;;;;;;;;;4988250;28;20062;-64
2023/07/06 03:05:13;;;;;;;3.58;1.63;;;;;;;;;;4987343;28;20050;-63
2023/07/06 03:07:42;;;;;;;3.42;1.55;;;;;;;;;;4988671;28;20471;-63
2023/07/06 03:10:12;;;;;;;3.53;1.65;;;;;;;;;;4980854;28;20488;-70
2023/07/06 03:12:42;;;;;;;6.13;1.70;;;;;;;;;;4986787;28;20058;-67
2023/07/06 03:15:13;;;;;;;3.85;1.90;;;;;;;;;;4989174;28;20070;-62
2023/07/06 03:17:41;;;;;;;5.22;2.17;;;;;;;;;;4986603;28;20054;-64
2023/07/06 03:20:14;;;;;;;4.15;2.05;;;;;;;;;;4984488;28;20042;-67
2023/07/06 03:22:44;;;;;;;4.03;2.15;;;;;;;;;;4983214;28;20050;-63
2023/07/06 03:25:13;;;;;;;3.20;1.50;;;;;;;;;;4985048;28;20058;-62
2023/07/06 03:27:43;;;;;;;3.75;1.63;;;;;;;;;;4986325;28;20058;-63
2023/07/06 03:30:12;;;;;;;3.80;1.83;;;;;;;;;;4984475;28;20050;-62
2023/07/06 03:32:41;;;;;;;4.00;1.60;;;;;;;;;;4987339;28;20128;-64
2023/07/06 03:35:11;;;;;;;5.60;2.20;;;;;;;;;;4985721;28;20108;-66
2023/07/06 03:37:41;;;;;;;4.28;1.95;;;;;;;;;;4988653;28;20050;-64
2023/07/06 03:40:11;;;;;;;3.80;1.42;;;;;;;;;;4986621;28;20137;-65
2023/07/06 03:42:40;;;;;;;3.40;1.70;;;;;;;;;;4986734;28;20165;-70
2023/07/06 03:45:11;;;;;;;5.43;2.10;;;;;;;;;;4987420;28;20600;-65
2023/07/06 03:47:42;;;;;;;3.22;2.15;;;;;;;;;;4984576;28;20086;-63
2023/07/06 03:50:12;;;;;;;3.45;1.70;;;;;;;;;;4989717;28;20046;-67
2023/07/06 03:52:41;;;;;;;4.88;1.80;;;;;;;;;;4985600;28;20058;-66
2023/07/06 03:55:13;;;;;;;4.30;1.90;;;;;;;;;;4989493;28;20491;-64
2023/07/06 03:57:43;;;;;;;3.60;1.80;;;;;;;;;;4988531;28;20514;-68
2023/07/06 04:00:28;;;;;;;5.32;1.73;;;;;;;;;;4983698;28;21831;-63
2023/07/06 04:02:59;;;;;;;3.45;1.80;;;;;;;;;;4983802;28;20050;-63
2023/07/06 04:05:32;;;;;;;7.35;1.98;;;;;;;;;;4982557;28;20108;-66
2023/07/06 04:08:03;;;;;;;3.88;2.10;;;;;;;;;;4988499;28;20072;-65
2023/07/06 04:10:33;;;;;;;7.13;1.63;;;;;;;;;;4992369;28;20109;-63
2023/07/06 04:13:02;;;;;;;3.50;1.50;;;;;;;;;;4984301;28;20050;-62
2023/07/06 04:15:32;;;;;;;5.22;1.58;;;;;;;;;;4982164;28;20136;-66
2023/07/06 04:18:00;;;;;;;3.28;1.55;;;;;;;;;;4975213;28;20116;-67
2023/07/06 04:20:29;;;;;;;2.50;1.60;;;;;;;;;;4987562;28;20053;-65
2023/07/06 04:22:59;;;;;;;3.45;1.58;;;;;;;;;;4987783;28;20038;-62
2023/07/06 04:25:29;;;;;;;4.50;1.80;;;;;;;;;;4984960;28;20486;-62
2023/07/06 04:27:58;;;;;;;4.50;1.90;;;;;;;;;;4981144;28;20082;-64
2023/07/06 04:30:27;;;;;;;3.67;1.90;;;;;;;;;;4984260;28;20100;-63
2023/07/06 04:32:58;;;;;;;5.97;1.80;;;;;;;;;;4982371;28;20054;-68
2023/07/06 04:35:27;;;;;;;3.80;1.90;;;;;;;;;;4982319;28;20053;-63
2023/07/06 04:37:55;;;;;;;5.13;2.25;;;;;;;;;;4987537;28;20081;-63
2023/07/06 04:40:26;;;;;;;5.15;2.38;;;;;;;;;;4983978;28;20054;-64
2023/07/06 04:42:55;;;;;;;4.35;1.95;;;;;;;;;;4986544;28;20038;-64
2023/07/06 04:45:25;;;;;;;4.82;2.15;;;;;;;;;;4980742;28;20117;-63
2023/07/06 04:47:56;;;;;;;6.07;1.95;;;;;;;;;;4977575;28;20166;-70
2023/07/06 04:50:27;;;;;;;2.50;1.40;;;;;;;;;;4986900;28;20050;-63
2023/07/06 04:52:57;;;;;;;4.43;2.13;;;;;;;;;;4982972;28;20431;-63
2023/07/06 04:55:27;;;;;;;3.10;1.55;;;;;;;;;;4982864;28;20043;-66
2023/07/06 04:57:56;;;;;;;4.68;1.70;;;;;;;;;;4982518;28;20046;-62
2023/07/06 05:00:25;;;;;;;4.03;1.65;;;;;;;;;;4987678;28;20057;-63
2023/07/06 05:02:54;;;;;;;4.07;1.40;;;;;;;;;;4979639;28;20050;-64
2023/07/06 05:05:24;;;;;;;3.80;2.08;;;;;;;;;;4983661;28;20054;-62
2023/07/06 05:07:55;;;;;;;4.30;2.15;;;;;;;;;;4982369;28;20046;-62
2023/07/06 05:10:25;;;;;;;5.80;1.90;;;;;;;;;;4977661;28;20154;-65
2023/07/06 05:12:55;;;;;;;3.22;2.13;;;;;;;;;;4985023;28;20136;-67
2023/07/06 05:15:24;;;;;;;4.47;1.80;;;;;;;;;;4981532;28;20056;-64
2023/07/06 05:17:53;;;;;;;4.30;2.17;;;;;;;;;;4989204;28;20131;-64
2023/07/06 05:20:23;;;;;;;3.45;1.58;;;;;;;;;;4973235;28;20058;-64
2023/07/06 05:22:52;;;;;;;5.05;1.98;;;;;;;;;;4980869;28;20058;-64
2023/07/06 05:25:22;;;;;;;4.78;1.85;;;;;;;;;;4986619;28;20376;-66
2023/07/06 05:27:50;;;;;;;4.53;2.20;;;;;;;;;;4985858;28;20103;-64
2023/07/06 05:30:19;;;;;;;4.03;1.73;;;;;;;;;;4985344;28;20050;-64
2023/07/06 05:32:50;;;;;;;6.35;2.25;;;;;;;;;;4981632;28;20523;-63
2023/07/06 05:35:19;;;;;;;3.97;1.92;;;;;;;;;;4981689;28;20522;-66
2023/07/06 05:37:48;;;;;;;2.85;1.63;;;;;;;;;;4977479;28;20054;-62
2023/07/06 05:40:17;;;;;;;3.72;1.67;;;;;;;;;;4972861;28;20078;-66
2023/07/06 05:42:47;;;;;;;8.57;2.33;;;;;;;;;;4981712;28;20053;-69
2023/07/06 05:45:15;;;;;;;5.47;2.10;;;;;;;;;;4981139;28;20613;-62
2023/07/06 05:47:44;;;;;;;3.22;1.98;;;;;;;;;;4979123;28;20070;-64
2023/07/06 05:50:12;;;;;;;3.83;1.60;;;;;;;;;;4983160;28;20093;-65
2023/07/06 05:52:41;;;;;;;3.83;1.92;;;;;;;;;;4983334;28;20068;-66
2023/07/06 05:55:10;;;;;;;4.30;2.03;;;;;;;;;;4983911;28;20072;-65
2023/07/06 05:57:38;;;;;;;6.00;2.45;;;;;;;;;;4983275;28;20107;-62
2023/07/06 06:00:10;;;;;;;3.80;2.13;;;;;;;;;;4985754;28;20472;-62
2023/07/06 06:02:39;;;;;;;6.15;2.05;;;;;;;;;;4982362;28;20053;-63
2023/07/06 06:05:08;;;;;;;9.00;2.50;;;;;;;;;;4981212;28;20054;-66
2023/07/06 06:07:38;;;;;;;4.90;2.10;;;;;;;;;;4989500;28;20077;-65
2023/07/06 06:10:07;;;;;;;3.60;2.08;;;;;;;;;;4990318;28;20041;-64
2023/07/06 06:12:36;;;;;;;4.97;1.98;;;;;;;;;;4985542;28;20130;-65
2023/07/06 06:15:07;;;;;;;3.90;1.77;;;;;;;;;;4984212;28;20046;-62
2023/07/06 06:17:38;;;;;;;5.15;1.90;;;;;;;;;;4985108;28;20124;-65
2023/07/06 06:20:08;;;;;;;3.78;1.75;;;;;;;;;;4985533;28;20128;-66
2023/07/06 06:22:37;;;;;;;4.32;1.90;;;;;;;;;;4986527;28;20426;-63
2023/07/06 06:25:06;;;;;;;3.60;1.60;;;;;;;;;;4988396;28;20053;-62
2023/07/06 06:27:35;;;;;;;3.20;1.60;;;;;;;;;;4987558;28;20046;-62
2023/07/06 06:30:05;;;;;;;3.85;1.55;;;;;;;;;;4988384;28;20092;-63
2023/07/06 06:32:34;;;;;;;2.80;1.52;;;;;;;;;;4986300;28;20082;-70
2023/07/06 06:35:20;;;;;;;5.63;1.65;;;;;;;;;;4985590;28;20117;-64
2023/07/06 06:37:48;;;;;;;4.22;1.92;;;;;;;;;;4981824;28;20495;-66
2023/07/06 06:40:17;;;;;;;5.45;2.22;;;;;;;;;;4986792;28;20085;-67
2023/07/06 06:42:47;;;;;;;3.70;1.58;;;;;;;;;;4990123;28;20575;-64
2023/07/06 06:45:16;;;;;;;3.80;1.83;;;;;;;;;;4990209;28;20088;-64
2023/07/06 06:47:44;;;;;;;4.65;1.50;;;;;;;;;;4986998;28;20082;-66
2023/07/06 06:50:16;;;;;;;3.67;1.70;;;;;;;;;;4988932;28;20061;-63
2023/07/06 06:52:45;;;;;;;3.78;1.67;;;;;;;;;;4987038;28;20061;-64
2023/07/06 06:55:14;;;;;;;3.65;1.60;;;;;;;;;;4990351;28;20049;-64
2023/07/06 06:57:43;;;;;;;3.30;1.40;;;;;;;;;;4986277;28;20046;-65
2023/07/06 07:00:14;;;;;;;6.35;1.95;;;;;;;;;;4987132;28;20050;-64
2023/07/06 07:02:42;;;;;;;4.18;1.75;;;;;;;;;;4985126;28;20053;-63
2023/07/06 07:05:12;;;;;;;3.20;1.50;;;;;;;;;;4989023;28;20053;-65
2023/07/06 07:07:42;;;;;;;6.63;1.92;;;;;;;;;;4984894;28;20046;-70
2023/07/06 07:10:11;;;;;;;2.88;1.55;;;;;;;;;;4985551;28;20096;-67
2023/07/06 07:12:40;;;;;;;2.85;1.42;;;;;;;;;;4988954;28;20061;-63
2023/07/06 07:15:10;;;;;;;3.15;1.60;;;;;;;;;;4986290;28;20042;-64
2023/07/06 07:17:38;;;;;;;4.30;1.77;;;;;;;;;;4986925;28;20507;-68
2023/07/06 07:20:09;;;;;;;2.85;1.63;;;;;;;;;;4986985;28;20058;-66
2023/07/06 07:22:38;;;;;;;4.05;1.50;;;;;;;;;;4984372;28;20058;-65
2023/07/06 07:25:09;;;;;;;4.63;1.90;;;;;;;;;;4985552;28;20070;-63
2023/07/06 07:27:37;;;;;;;3.65;1.70;;;;;;;;;;4987363;28;20050;-65
2023/07/06 07:30:06;;;;;;;2.90;1.60;;;;;;;;;;4980212;28;20038;-64
2023/07/06 07:32:35;;;;;;;2.72;1.33;;;;;;;;;;4984565;28;20553;-67
2023/07/06 07:35:03;;;;;;;3.33;1.75;;;;;;;;;;4985685;28;20056;-63
2023/07/06 07:37:31;;;;;;;3.10;1.50;;;;;;;;;;4986123;28;20082;-63
2023/07/06 07:40:00;;;;;;;2.65;1.42;;;;;;;;;;4982117;28;20100;-63
2023/07/06 07:42:30;;;;;;;4.72;1.70;;;;;;;;;;4982491;28;20561;-64
2023/07/06 07:44:59;;;;;;;2.30;1.60;;;;;;;;;;4978576;28;20538;-64
2023/07/06 07:47:27;;;;;;;4.03;2.13;;;;;;;;;;4984524;28;20425;-64
2023/07/06 07:49:57;;;;;;;2.75;1.70;;;;;;;;;;4986463;28;20054;-63
2023/07/06 07:52:28;;;;;;;4.68;1.80;;;;;;;;;;4980740;28;20050;-64
2023/07/06 07:54:57;;;;;;;2.45;1.35;;;;;;;;;;4978196;28;20102;-66
2023/07/06 07:57:25;;;;;;;4.80;1.90;;;;;;;;;;4979158;28;20050;-66
2023/07/06 07:59:55;;;;;;;5.53;1.55;;;;;;;;;;4985915;28;20054;-65
2023/07/06 08:02:23;;;;;;;3.00;1.50;;;;;;;;;;4987122;28;20085;-65
2023/07/06 08:04:52;;;;;;;4.78;1.48;;;;;;;;;;4980379;28;20085;-69
2023/07/06 08:07:21;;;;;;;6.45;1.67;;;;;;;;;;4988799;28;20049;-65
2023/07/06 08:09:50;;;;;;;2.58;1.25;;;;;;;;;;4990228;28;20053;-65
2023/07/06 08:12:20;;;;;;;3.67;1.77;;;;;;;;;;4983715;28;20968;-66
2023/07/06 08:14:48;;;;;;;2.17;1.42;;;;;;;;;;4988534;28;20062;-64
2023/07/06 08:17:18;;;;;;;2.55;1.35;;;;;;;;;;4987493;28;20058;-67
2023/07/06 08:19:47;;;;;;;3.03;1.80;;;;;;;;;;4985850;28;20039;-67
2023/07/06 08:22:35;;;;;;;3.85;1.60;;;;;;;;;;4986644;28;20053;-65
2023/07/06 08:25:07;;;;;;;2.90;1.40;;;;;;;;;;4982426;28;20495;-69
2023/07/06 08:27:39;;;;;;;3.63;1.73;;;;;;;;;;4984109;28;20132;-67
2023/07/06 08:30:08;;;;;;;4.93;2.00;;;;;;;;;;4984802;28;20042;-66
2023/07/06 08:32:39;;;;;;;2.53;1.27;;;;;;;;;;4988432;28;20562;-71
2023/07/06 08:35:08;;;;;;;3.28;1.45;;;;;;;;;;4987131;28;20574;-67
2023/07/06 08:37:36;;;;;;;4.47;1.77;;;;;;;;;;4985805;28;20475;-69
2023/07/06 08:40:05;;;;;;;4.38;1.98;;;;;;;;;;4985156;28;20069;-68
2023/07/06 08:42:34;;;;;;;4.95;1.48;;;;;;;;;;4982193;28;20657;-66
2023/07/06 08:45:02;;;;;;;4.20;1.92;;;;;;;;;;4986034;28;20176;-71
2023/07/06 08:47:30;;;;;;;3.55;2.03;;;;;;;;;;4991631;28;20070;-67
2023/07/06 08:50:03;;;;;;;3.38;1.48;;;;;;;;;;4984506;28;20696;-64
2023/07/06 08:52:31;;;;;;;5.22;1.95;;;;;;;;;;4987330;28;20042;-64
2023/07/06 08:55:00;;;;;;;5.28;1.90;;;;;;;;;;4984588;28;20053;-65
2023/07/06 08:57:30;;;;;;;4.32;1.67;;;;;;;;;;4988616;28;20422;-65
2023/07/06 08:59:59;;;;;;;2.05;1.35;;;;;;;;;;4981255;28;20467;-64
2023/07/06 09:02:29;;;;;;;3.10;1.92;;;;;;;;;;4985488;28;20050;-66
2023/07/06 09:04:59;;;;;;;3.20;1.73;;;;;;;;;;4984034;28;20117;-64
2023/07/06 09:07:32;;;;;;;5.20;2.25;;;;;;;;;;4985912;28;20046;-65
2023/07/06 09:10:01;;;;;;;2.83;1.38;;;;;;;;;;4985186;28;20074;-67
2023/07/06 09:12:49;;;;;;;3.53;1.75;;;;;;;;;;4989325;28;20080;-65
2023/07/06 09:15:18;;;;;;;3.22;1.80;;;;;;;;;;4984423;28;20054;-65
2023/07/06 09:17:47;;;;;;;6.03;1.95;;;;;;;;;;4983798;28;20122;-69
2023/07/06 09:20:17;;;;;;;6.55;1.65;;;;;;;;;;4984672;28;20698;-65
2023/07/06 09:22:48;;;;;;;3.00;1.83;;;;;;;;;;4985783;28;20158;-67
2023/07/06 09:25:18;;;;;;;4.30;1.90;;;;;;;;;;4983208;28;20043;-65
2023/07/06 09:27:48;;;;;;;3.35;1.58;;;;;;;;;;4984763;28;21418;-65
2023/07/06 09:30:25;;;;;;;3.78;2.08;;;;;;;;;;4980656;28;20054;-69
2023/07/06 09:32:54;;;;;;;4.43;1.98;;;;;;;;;;4988480;28;20081;-65
2023/07/06 09:35:23;;;;;;;10.82;2.17;;;;;;;;;;4987018;28;20054;-65
2023/07/06 09:37:52;;;;;;;4.60;1.60;;;;;;;;;;4988501;28;20469;-65
2023/07/06 09:40:28;;;;;;;5.45;1.77;;;;;;;;;;4988518;28;20495;-68
2023/07/06 09:43:00;;;;;;;3.60;2.00;;;;;;;;;;4988825;28;20053;-69
2023/07/06 09:45:30;;;;;;;3.90;1.70;;;;;;;;;;4983799;28;20618;-65
2023/07/06 09:48:01;;;;;;;3.22;1.60;;;;;;;;;;4991168;28;20112;-64
2023/07/06 09:50:35;;;;;;;5.22;2.03;;;;;;;;;;4985867;28;20546;-65
2023/07/06 09:53:07;;;;;;;3.83;1.80;;;;;;;;;;4989889;28;20104;-70
2023/07/06 09:55:35;;;;;;;3.70;1.83;;;;;;;;;;4985080;28;20057;-66
2023/07/06 09:58:04;;;;;;;3.83;2.10;;;;;;;;;;4987930;28;20054;-65
2023/07/06 10:00:35;;;;;;;5.43;2.20;;;;;;;;;;4991425;28;20081;-64
2023/07/06 10:03:09;;;;;;;3.40;1.77;;;;;;;;;;4989987;28;20058;-66
2023/07/06 10:05:42;;;;;;;4.50;2.13;;;;;;;;;;4983258;28;20050;-65
2023/07/06 10:08:13;;;;;;;3.30;1.90;;;;;;;;;;4980972;28;20078;-67
2023/07/06 10:10:52;;;;;;;3.78;2.10;;;;;;;;;;4991115;28;20046;-65
2023/07/06 10:13:28;;;;;;;3.85;1.98;;;;;;;;;;4990741;28;21214;-65
2023/07/06 10:16:00;;;;;;;4.53;2.33;;;;;;;;;;4986072;28;20426;-66
2023/07/06 10:18:30;;;;;;;5.55;1.95;;;;;;;;;;4993162;28;20084;-66
2023/07/06 10:21:00;;;;;;;3.95;1.63;;;;;;;;;;4985816;28;20069;-65
2023/07/06 10:23:34;;;;;;;4.45;2.10;;;;;;;;;;4990814;28;20077;-68
2023/07/06 10:26:09;;;;;;;3.50;1.92;;;;;;;;;;4989763;28;20041;-65
2023/07/06 10:28:39;;;;;;;2.80;1.70;;;;;;;;;;4992096;28;20054;-66
2023/07/06 10:31:09;;;;;;;5.30;1.80;;;;;;;;;;4986726;28;20050;-66
2023/07/06 10:33:47;;;;;;;3.85;1.73;;;;;;;;;;4987623;28;21000;-65
2023/07/06 10:36:16;;;;;;;3.20;1.77;;;;;;;;;;4991898;28;20096;-66
2023/07/06 10:38:47;;;;;;;5.32;2.10;;;;;;;;;;4990194;28;20050;-66
2023/07/06 10:41:22;;;;;;;10.65;2.20;;;;;;;;;;4989257;28;20047;-66
2023/07/06 10:43:52;;;;;;;2.83;1.80;;;;;;;;;;4989781;28;20046;-64
2023/07/06 10:46:33;;;;;;;3.78;2.13;;;;;;;;;;4988856;28;20419;-64
2023/07/06 10:49:15;;;;;;;2.70;1.60;;;;;;;;;;4987443;28;20125;-64
2023/07/06 10:51:49;;;;;;;3.58;2.03;;;;;;;;;;4983586;28;20054;-64
2023/07/06 10:54:20;;;;;;;3.50;2.00;;;;;;;;;;4984602;28;21014;-64
2023/07/06 10:56:49;;;;;;;4.45;2.25;;;;;;;;;;4986549;28;20050;-65
2023/07/06 10:59:19;;;;;;;3.45;1.85;;;;;;;;;;4986940;28;20070;-64
2023/07/06 11:01:48;;;;;;;2.72;1.70;;;;;;;;;;4989799;28;20062;-68
2023/07/06 11:04:35;;;;;;;4.63;2.15;;;;;;;;;;4983764;28;20054;-66
2023/07/06 11:07:04;;;;;;;4.07;1.98;;;;;;;;;;4984047;28;20049;-64
2023/07/06 11:09:47;;;;;;;4.80;2.15;;;;;;;;;;4991126;28;20054;-67
2023/07/06 11:12:18;;;;;;;4.22;2.53;;;;;;;;;;4987029;28;20116;-69
2023/07/06 11:14:48;;;;;;;2.72;1.88;;;;;;;;;;4985635;28;20891;-65
2023/07/06 11:17:21;;;;;;;5.68;2.42;;;;;;;;;;4992578;28;20057;-65
2023/07/06 11:19:53;;;;;;;3.58;2.25;;;;;;;;;;4988840;28;20494;-71
2023/07/06 11:22:23;;;;;;;3.38;2.00;;;;;;;;;;4988595;28;20125;-66
2023/07/06 11:24:55;;;;;;;4.25;1.95;;;;;;;;;;4988774;28;20054;-65
2023/07/06 11:27:26;;;;;;;3.70;1.70;;;;;;;;;;4983465;28;20393;-66
2023/07/06 11:29:55;;;;;;;2.70;1.77;;;;;;;;;;4988148;28;20070;-65
2023/07/06 11:32:28;;;;;;;4.72;2.25;;;;;;;;;;4983600;28;20093;-67
2023/07/06 11:35:07;;;;;;;3.88;1.92;;;;;;;;;;4970986;28;20058;-67
2023/07/06 11:37:40;;;;;;;3.22;1.75;;;;;;;;;;4981894;28;20054;-68
2023/07/06 11:40:34;;;;;;;3.70;1.75;;;;;;;;;;4983892;28;20050;-69
2023/07/06 11:43:06;;;;;;;3.70;1.92;;;;;;;;;;4984064;28;20141;-66
2023/07/06 11:45:39;;;;;;;3.17;1.88;;;;;;;;;;4988207;28;20111;-66
2023/07/06 11:48:15;;;;;;;3.63;1.85;;;;;;;;;;4984824;28;20571;-65
2023/07/06 11:50:46;;;;;;;5.50;2.30;;;;;;;;;;4988783;28;20051;-64
2023/07/06 11:53:29;;;;;;;3.80;2.15;;;;;;;;;;4981347;28;20153;-67
2023/07/06 11:56:05;;;;;;;6.03;2.38;;;;;;;;;;4985784;28;20065;-66
2023/07/06 11:58:53;;;;;;;4.63;2.45;;;;;;;;;;4986152;28;20062;-66
2023/07/06 12:01:40;;;;;;;5.68;2.20;;;;;;;;;;4987822;28;20073;-68
2023/07/06 12:04:13;;;;;;;3.78;2.00;;;;;;;;;;4983495;28;20069;-70
2023/07/06 12:06:43;;;;;;;3.42;2.30;;;;;;;;;;4983548;28;20054;-67
2023/07/06 12:09:17;;;;;;;2.75;1.73;;;;;;;;;;4989214;28;20046;-71
2023/07/06 12:11:47;;;;;;;5.55;2.10;;;;;;;;;;4982520;28;20046;-66
2023/07/06 12:14:18;;;;;;;3.55;2.33;;;;;;;;;;4985910;28;20046;-68
2023/07/06 12:16:47;;;;;;;4.55;2.10;;;;;;;;;;4982922;28;20139;-67
2023/07/06 12:19:17;;;;;;;5.22;2.50;;;;;;;;;;4987531;28;20648;-69
2023/07/06 12:21:46;;;;;;;4.60;2.25;;;;;;;;;;4988782;28;20502;-67
2023/07/06 12:24:16;;;;;;;5.90;2.00;;;;;;;;;;4982708;28;20558;-67
2023/07/06 12:26:45;;;;;;;4.25;2.30;;;;;;;;;;4986474;28;20190;-71
2023/07/06 12:29:16;;;;;;;3.75;2.38;;;;;;;;;;4983242;28;20688;-68
2023/07/06 12:31:46;;;;;;;3.38;1.90;;;;;;;;;;4980118;28;20100;-68
2023/07/06 12:34:17;;;;;;;3.78;1.88;;;;;;;;;;4979685;28;20054;-66
2023/07/06 12:36:49;;;;;;;4.07;2.00;;;;;;;;;;4982020;28;20096;-68
2023/07/06 12:39:19;;;;;;;4.97;2.55;;;;;;;;;;4975395;28;20046;-67
2023/07/06 12:41:48;;;;;;;3.63;2.13;;;;;;;;;;4982632;28;20058;-67
2023/07/06 12:44:21;;;;;;;4.88;2.17;;;;;;;;;;4975089;28;20069;-70
2023/07/06 12:46:51;;;;;;;3.22;1.92;;;;;;;;;;4978286;28;20050;-67
2023/07/06 12:49:22;;;;;;;3.65;2.20;;;;;;;;;;4982150;28;20251;-65
2023/07/06 12:51:54;;;;;;;3.58;2.13;;;;;;;;;;4979618;28;20141;-69
2023/07/06 12:54:24;;;;;;;9.40;2.20;;;;;;;;;;4985286;28;20051;-66
2023/07/06 12:56:59;;;;;;;4.93;2.70;;;;;;;;;;4986858;28;20046;-66
2023/07/06 12:59:34;;;;;;;7.07;2.28;;;;;;;;;;4983322;28;20534;-66
2023/07/06 13:02:08;;;;;;;4.45;2.60;;;;;;;;;;4985483;28;20046;-70
2023/07/06 13:04:47;;;;;;;3.97;2.30;;;;;;;;;;4978521;28;20055;-66
2023/07/06 13:07:16;;;;;;;6.10;2.63;;;;;;;;;;4981763;28;20054;-67
2023/07/06 13:09:45;;;;;;;3.85;2.13;;;;;;;;;;4981714;28;20057;-67
2023/07/06 13:12:18;;;;;;;4.97;2.03;;;;;;;;;;4983934;28;20072;-66
2023/07/06 13:14:49;;;;;;;3.47;1.85;;;;;;;;;;4985864;28;20054;-67
2023/07/06 13:17:22;;;;;;;4.38;2.17;;;;;;;;;;4984390;28;20572;-71
2023/07/06 13:19:51;;;;;;;4.63;1.92;;;;;;;;;;4985543;28;20050;-64
2023/07/06 13:22:21;;;;;;;6.28;2.70;;;;;;;;;;4981757;28;20464;-66
2023/07/06 13:24:49;;;;;;;5.05;2.38;;;;;;;;;;4984536;28;20422;-66
2023/07/06 13:27:19;;;;;;;7.38;2.63;;;;;;;;;;4982461;28;20144;-69
2023/07/06 13:29:50;;;;;;;4.20;2.25;;;;;;;;;;4985036;28;20051;-70
2023/07/06 13:32:20;;;;;;;4.00;2.08;;;;;;;;;;4985946;28;20426;-71
2023/07/06 13:34:49;;;;;;;3.47;1.98;;;;;;;;;;4984520;28;20050;-66
2023/07/06 13:37:20;;;;;;;5.03;2.30;;;;;;;;;;4982995;28;20051;-66
2023/07/06 13:39:49;;;;;;;5.00;2.58;;;;;;;;;;4988707;28;20061;-69
2023/07/06 13:42:18;;;;;;;4.45;2.35;;;;;;;;;;4984705;28;20049;-66
2023/07/06 13:44:48;;;;;;;5.35;2.60;;;;;;;;;;4982790;28;20046;-70
2023/07/06 13:47:18;;;;;;;4.05;2.13;;;;;;;;;;4987107;28;20111;-67
2023/07/06 13:49:48;;;;;;;4.97;2.00;;;;;;;;;;4988643;28;20066;-68
2023/07/06 13:52:21;;;;;;;4.30;2.20;;;;;;;;;;4987829;28;20050;-66
2023/07/06 13:54:50;;;;;;;4.88;2.00;;;;;;;;;;4980590;28;20109;-66
2023/07/06 13:57:20;;;;;;;3.38;2.22;;;;;;;;;;4987808;28;20066;-69
2023/07/06 13:59:50;;;;;;;4.15;2.08;;;;;;;;;;4980738;28;20055;-67
2023/07/06 14:02:21;;;;;;;3.92;2.17;;;;;;;;;;4985306;28;20935;-67
2023/07/06 14:04:49;;;;;;;5.00;2.50;;;;;;;;;;4978735;28;20116;-66
2023/07/06 14:07:18;;;;;;;6.65;2.20;;;;;;;;;;4985586;28;20053;-69
2023/07/06 14:09:47;;;;;;;3.92;2.38;;;;;;;;;;4983739;28;20142;-66
2023/07/06 14:12:19;;;;;;;4.47;2.10;;;;;;;;;;4985252;28;20070;-66
2023/07/06 14:14:47;;;;;;;3.67;2.15;;;;;;;;;;4982132;28;20054;-66
2023/07/06 14:17:17;;;;;;;3.85;2.10;;;;;;;;;;4984188;28;20053;-66
2023/07/06 14:19:46;;;;;;;3.35;2.03;;;;;;;;;;4986563;28;20101;-66
2023/07/06 14:22:30;;;;;;;5.50;2.50;;;;;;;;;;4984508;28;20124;-66
2023/07/06 14:24:59;;;;;;;4.72;2.50;;;;;;;;;;4984933;28;20681;-67
2023/07/06 14:27:29;;;;;;;4.47;2.55;;;;;;;;;;4979347;28;20443;-67
2023/07/06 14:29:58;;;;;;;4.60;2.50;;;;;;;;;;4988593;28;20069;-68
2023/07/06 14:32:29;;;;;;;6.13;2.30;;;;;;;;;;4987204;28;20076;-71
2023/07/06 14:34:57;;;;;;;4.95;2.30;;;;;;;;;;4982259;28;20060;-67
2023/07/06 14:37:26;;;;;;;5.85;2.42;;;;;;;;;;4984647;28;20054;-66
2023/07/06 14:39:55;;;;;;;4.72;2.33;;;;;;;;;;4985626;28;20046;-70
2023/07/06 14:42:23;;;;;;;3.95;2.13;;;;;;;;;;4985265;28;20472;-66
2023/07/06 14:44:52;;;;;;;9.57;2.55;;;;;;;;;;4983918;28;20468;-66
2023/07/06 14:47:20;;;;;;;5.90;2.50;;;;;;;;;;4983490;28;20521;-66
2023/07/06 14:49:50;;;;;;;4.30;2.45;;;;;;;;;;4984505;28;20534;-66
2023/07/06 14:52:19;;;;;;;4.35;2.30;;;;;;;;;;4981533;28;20145;-65
2023/07/06 14:54:47;;;;;;;4.70;2.50;;;;;;;;;;4984730;28;20096;-71
2023/07/06 14:57:16;;;;;;;3.83;2.35;;;;;;;;;;4982888;28;20447;-72
2023/07/06 14:59:44;;;;;;;4.65;2.47;;;;;;;;;;4982552;28;20780;-67
2023/07/06 15:02:13;;;;;;;4.15;2.28;;;;;;;;;;4981338;28;20069;-68
2023/07/06 15:04:42;;;;;;;5.65;2.72;;;;;;;;;;4980978;28;20046;-66
2023/07/06 15:07:11;;;;;;;5.28;2.28;;;;;;;;;;4986078;28;20073;-70